Time;durP1;ratioP1;P1;durP2;ratioP2;P2;SDS_P1;SDS_P2;PMS_P1;PMS_P2;Temp;Humidity;BMP_temperature;BMP_pressure;BME280_temperature;BME280_humidity;BME280_pressure;Samples;Min_cycle;Max_cycle;Signal;HPM_P1;HPM_P2
2021/12/22 00:01:41;0.00;0.00;0.62;0.00;0.00;0.62;6.00;4.90;;;19.80;26.00;;;;;;2250473;61;20381;-60
2021/12/22 00:04:26;0.00;0.00;0.62;0.00;0.00;0.62;5.30;4.80;;;19.80;26.00;;;;;;2248875;61;20448;-57
2021/12/22 00:07:13;0.00;0.00;0.62;0.00;0.00;0.62;4.67;4.20;;;19.80;26.00;;;;;;2250424;61;20420;-58
2021/12/22 00:09:57;0.00;0.00;0.62;0.00;0.00;0.62;6.97;4.93;;;19.70;25.90;;;;;;2250295;61;20364;-58
2021/12/22 00:12:42;0.00;0.00;0.62;0.00;0.00;0.62;5.93;5.03;;;19.70;25.80;;;;;;2248778;61;20392;-53
2021/12/22 00:15:27;0.00;0.00;0.62;0.00;0.00;0.62;5.60;4.90;;;19.70;25.80;;;;;;2250279;61;20453;-58
2021/12/22 00:18:12;0.00;0.00;0.62;0.00;0.00;0.62;5.17;4.67;;;19.70;25.80;;;;;;2250014;61;20393;-57
2021/12/22 00:20:56;0.00;0.00;0.62;0.00;0.00;0.62;5.33;4.53;;;19.70;25.70;;;;;;2249803;61;20570;-61
2021/12/22 00:23:43;0.00;0.00;0.62;0.00;0.00;0.62;5.53;4.87;;;19.60;25.60;;;;;;2250350;61;20397;-60
2021/12/22 00:26:28;0.00;0.00;0.62;0.00;0.00;0.62;5.67;5.07;;;19.60;25.60;;;;;;2248288;61;20412;-57
2021/12/22 00:29:13;0.00;0.00;0.62;0.00;0.00;0.62;7.70;5.57;;;19.60;25.60;;;;;;2250166;61;20365;-58
2021/12/22 00:32:19;0.00;0.00;0.62;0.00;0.00;0.62;8.17;5.57;;;19.60;25.50;;;;;;2250224;61;20360;-51
2021/12/22 00:35:05;0.00;0.00;0.62;0.00;0.00;0.62;6.00;5.40;;;19.50;25.40;;;;;;2248946;61;20438;-57
2021/12/22 00:37:50;0.00;0.00;0.62;0.00;0.00;0.62;5.27;4.77;;;19.50;25.40;;;;;;2250406;61;20367;-52
2021/12/22 00:40:37;0.00;0.00;0.62;0.00;0.00;0.62;5.73;5.00;;;19.50;25.40;;;;;;2249874;61;20470;-58
2021/12/22 00:43:21;0.00;0.00;0.62;0.00;0.00;0.62;6.03;5.43;;;19.50;25.40;;;;;;2250281;61;20818;-60
2021/12/22 00:46:07;0.00;0.00;0.62;0.00;0.00;0.62;7.10;5.33;;;19.40;25.40;;;;;;2250038;61;20804;-54
2021/12/22 00:48:52;0.00;0.00;0.62;0.00;0.00;0.62;6.10;4.87;;;19.40;25.30;;;;;;2248609;61;20364;-57
2021/12/22 00:51:36;0.00;0.00;0.62;0.00;0.00;0.62;6.20;5.50;;;19.30;25.30;;;;;;2250170;61;20408;-58
2021/12/22 00:54:21;0.00;0.00;0.62;0.00;0.00;0.62;6.77;6.07;;;19.30;25.30;;;;;;2250299;61;20480;-56
2021/12/22 00:57:09;0.00;0.00;0.62;0.00;0.00;0.62;6.57;5.97;;;19.30;25.30;;;;;;2248859;61;20644;-56
2021/12/22 00:59:54;0.00;0.00;0.62;0.00;0.00;0.62;5.00;4.50;;;19.30;25.30;;;;;;2250204;61;20373;-61
2021/12/22 01:02:39;0.00;0.00;0.62;0.00;0.00;0.62;6.63;5.70;;;19.30;25.30;;;;;;2249930;61;20369;-55
2021/12/22 01:05:24;0.00;0.00;0.62;0.00;0.00;0.62;6.77;6.07;;;19.20;25.20;;;;;;2249570;61;20489;-54
2021/12/22 01:08:09;0.00;0.00;0.62;0.00;0.00;0.62;7.80;5.80;;;19.20;25.20;;;;;;2250369;61;20364;-54
2021/12/22 01:10:54;0.00;0.00;0.62;0.00;0.00;0.62;6.87;5.13;;;19.20;25.10;;;;;;2248632;61;20680;-54
2021/12/22 01:13:40;0.00;0.00;0.62;0.00;0.00;0.62;8.10;5.40;;;19.20;25.10;;;;;;2250113;61;20392;-58
2021/12/22 01:16:25;0.00;0.00;0.62;0.00;0.00;0.62;6.07;5.43;;;19.20;25.00;;;;;;2250054;61;20779;-55
2021/12/22 01:19:14;0.00;0.00;0.62;0.00;0.00;0.62;8.90;6.90;;;19.10;25.00;;;;;;2248667;61;20384;-54
2021/12/22 01:22:47;0.00;0.00;0.62;0.00;0.00;0.62;6.60;5.90;;;19.10;24.90;;;;;;2250145;61;20392;-56
2021/12/22 01:25:08;0.00;0.00;0.62;0.00;0.00;0.62;6.13;5.47;;;19.10;24.90;;;;;;2249151;61;20408;-59
2021/12/22 01:27:53;0.00;0.00;0.62;0.00;0.00;0.62;6.50;5.67;;;19.00;24.80;;;;;;2250001;61;20720;-53
2021/12/22 01:31:01;0.00;0.00;0.62;0.00;0.00;0.62;6.80;5.70;;;19.00;24.80;;;;;;2250034;61;20744;-58
2021/12/22 01:33:46;0.00;0.00;0.62;0.00;0.00;0.62;5.77;5.27;;;19.00;24.80;;;;;;2248646;61;20726;-58
2021/12/22 01:36:30;0.00;0.00;0.62;0.00;0.00;0.62;6.47;5.13;;;19.00;24.70;;;;;;2250062;61;20381;-58
2021/12/22 01:39:15;0.00;0.00;0.62;0.00;0.00;0.62;6.43;5.33;;;19.00;24.90;;;;;;2250157;61;20364;-55
2021/12/22 01:41:59;0.00;0.00;0.62;0.00;0.00;0.62;6.27;5.00;;;18.90;24.60;;;;;;2248942;61;20626;-59
2021/12/22 01:51:04;0.00;0.00;0.62;0.00;0.00;0.62;7.27;5.80;;;18.90;24.60;;;;;;2250189;61;20649;-60
2021/12/22 01:53:50;0.00;0.00;0.62;0.00;0.00;0.62;6.37;5.20;;;18.80;24.60;;;;;;2250112;61;20409;-60
2021/12/22 01:56:36;0.00;0.00;0.62;0.00;0.00;0.62;6.93;6.23;;;18.80;24.50;;;;;;2248614;61;20381;-59
2021/12/22 01:59:21;0.00;0.00;0.62;0.00;0.00;0.62;8.57;5.70;;;18.80;24.60;;;;;;2249730;61;20359;-57
2021/12/22 02:02:07;0.00;0.00;0.62;0.00;0.00;0.62;6.47;5.60;;;18.70;24.50;;;;;;2249249;61;20365;-59
2021/12/22 02:04:53;0.00;0.00;0.62;0.00;0.00;0.62;5.70;5.10;;;18.70;24.60;;;;;;2249858;61;20425;-57
2021/12/22 02:07:38;0.00;0.00;0.62;0.00;0.00;0.62;6.40;5.57;;;18.70;24.60;;;;;;2250006;61;20597;-56
2021/12/22 02:10:36;0.00;0.00;0.62;0.00;0.00;0.62;6.33;5.50;;;18.70;24.60;;;;;;2248331;61;20814;-58
2021/12/22 02:13:28;0.00;0.00;0.62;0.00;0.00;0.62;6.33;5.17;;;18.70;24.60;;;;;;2249830;61;20404;-57
2021/12/22 02:16:15;0.00;0.00;0.62;0.00;0.00;0.62;5.70;5.07;;;18.70;24.60;;;;;;2249715;61;20380;-58
2021/12/22 02:19:02;0.00;0.00;0.62;0.00;0.00;0.62;6.90;5.67;;;18.70;24.60;;;;;;2249288;61;20617;-60
2021/12/22 02:21:54;0.00;0.00;0.62;0.00;0.00;0.62;5.97;4.90;;;18.60;24.50;;;;;;2250127;61;20361;-56
2021/12/22 02:24:44;0.00;0.00;0.62;0.00;0.00;0.62;6.47;5.30;;;18.60;24.50;;;;;;2248200;61;21083;-60
2021/12/22 02:27:36;0.00;0.00;0.62;0.00;0.00;0.62;6.77;5.07;;;18.60;24.50;;;;;;2250006;61;20445;-56
2021/12/22 02:30:28;0.00;0.00;0.62;0.00;0.00;0.62;7.00;5.10;;;18.60;24.50;;;;;;2249810;61;20364;-55
2021/12/22 02:36:11;0.00;0.00;0.62;0.00;0.00;0.62;5.73;5.13;;;18.50;24.40;;;;;;2249941;61;20412;-53
2021/12/22 02:39:00;0.00;0.00;0.62;0.00;0.00;0.62;6.77;5.20;;;18.50;24.40;;;;;;2249506;61;20671;-55
2021/12/22 02:41:44;0.00;0.00;0.62;0.00;0.00;0.62;6.00;4.90;;;18.50;24.40;;;;;;2249896;61;20514;-53
2021/12/22 02:44:30;0.00;0.00;0.62;0.00;0.00;0.62;7.00;5.47;;;18.50;24.40;;;;;;2249769;61;20395;-55
2021/12/22 02:47:20;0.00;0.00;0.62;0.00;0.00;0.62;6.90;5.40;;;18.50;24.40;;;;;;2248487;61;20620;-56
2021/12/22 02:50:07;0.00;0.00;0.62;0.00;0.00;0.62;7.10;5.93;;;18.50;24.40;;;;;;2249915;61;20415;-58
2021/12/22 02:53:29;0.00;0.00;0.62;0.00;0.00;0.62;6.77;5.10;;;18.40;24.30;;;;;;2249711;61;20365;-57
2021/12/22 02:56:16;0.00;0.00;0.62;0.00;0.00;0.62;5.67;5.07;;;18.40;24.30;;;;;;2248862;61;20439;-57
2021/12/22 02:59:10;0.00;0.00;0.62;0.00;0.00;0.62;6.73;5.40;;;18.30;24.20;;;;;;2249684;61;20392;-57
2021/12/22 03:02:18;0.00;0.00;0.62;0.00;0.00;0.62;6.60;5.30;;;18.30;24.30;;;;;;2248484;61;20704;-55
2021/12/22 03:05:57;0.00;0.00;0.62;0.00;0.00;0.62;7.30;6.13;;;18.30;24.30;;;;;;2249597;61;20444;-58
2021/12/22 03:12:44;0.00;0.00;0.62;0.00;0.00;0.62;6.33;5.10;;;18.20;24.30;;;;;;2249463;61;20404;-57
2021/12/22 03:15:30;0.00;0.00;0.62;0.00;0.00;0.62;5.73;4.70;;;18.20;24.30;;;;;;2249598;61;20376;-59
2021/12/22 03:18:16;0.00;0.00;0.62;0.00;0.00;0.62;5.03;4.53;;;18.10;24.20;;;;;;2248850;61;20444;-59
2021/12/22 03:21:12;0.00;0.00;0.62;0.00;0.00;0.62;6.93;6.07;;;18.10;24.20;;;;;;2249884;61;20365;-54
2021/12/22 03:23:57;0.00;0.00;0.62;0.00;0.00;0.62;7.73;5.90;;;18.10;24.20;;;;;;2248328;61;20417;-58
2021/12/22 03:26:43;0.00;0.00;0.62;0.00;0.00;0.62;7.80;5.67;;;18.10;24.20;;;;;;2249542;61;20444;-57
2021/12/22 03:29:31;0.00;0.00;0.62;0.00;0.00;0.62;6.30;5.17;;;18.00;24.10;;;;;;2249755;61;20364;-56
2021/12/22 03:32:15;0.00;0.00;0.62;0.00;0.00;0.62;6.53;5.40;;;18.00;24.20;;;;;;2248118;61;20720;-58
2021/12/22 03:35:00;0.00;0.00;0.62;0.00;0.00;0.62;7.73;5.57;;;18.00;24.20;;;;;;2249644;61;20360;-59
2021/12/22 03:37:46;0.00;0.00;0.62;0.00;0.00;0.62;6.50;5.03;;;18.00;24.20;;;;;;2249759;61;20384;-59
2021/12/22 03:40:31;0.00;0.00;0.62;0.00;0.00;0.62;6.33;5.20;;;18.00;24.20;;;;;;2251042;61;20774;-55
2021/12/22 03:43:16;0.00;0.00;0.62;0.00;0.00;0.62;5.43;4.80;;;17.90;24.10;;;;;;2249817;61;20369;-55
2021/12/22 03:46:03;0.00;0.00;0.62;0.00;0.00;0.62;5.30;4.80;;;17.90;24.10;;;;;;2248111;61;20396;-57
2021/12/22 03:49:59;0.00;0.00;0.62;0.00;0.00;0.62;6.43;5.17;;;17.90;24.10;;;;;;2249422;61;20477;-58
2021/12/22 03:52:46;0.00;0.00;0.62;0.00;0.00;0.62;5.90;5.30;;;17.90;24.10;;;;;;2249420;61;20411;-58
2021/12/22 03:55:31;0.00;0.00;0.62;0.00;0.00;0.62;6.20;5.50;;;17.90;24.20;;;;;;2248787;61;20385;-62
2021/12/22 03:58:15;0.00;0.00;0.62;0.00;0.00;0.62;5.60;4.30;;;17.80;24.10;;;;;;2249912;61;20369;-52
2021/12/22 04:01:01;0.00;0.00;0.62;0.00;0.00;0.62;6.20;5.10;;;17.80;24.10;;;;;;2248185;61;20751;-56
2021/12/22 04:03:50;0.00;0.00;0.62;0.00;0.00;0.62;5.57;4.97;;;17.80;24.20;;;;;;2249735;61;20368;-52
2021/12/22 04:06:34;0.00;0.00;0.62;0.00;0.00;0.62;6.97;4.90;;;17.80;24.20;;;;;;2249667;61;20612;-57
2021/12/22 04:09:26;0.00;0.00;0.62;0.00;0.00;0.62;6.20;5.30;;;17.80;24.10;;;;;;2248201;61;20408;-58
2021/12/22 04:12:11;0.00;0.00;0.62;0.00;0.00;0.62;6.27;5.23;;;17.70;24.10;;;;;;2249659;61;21304;-57
2021/12/22 04:14:56;0.00;0.00;0.62;0.00;0.00;0.62;5.50;4.90;;;17.70;24.10;;;;;;2249101;61;20474;-55
2021/12/22 04:17:42;0.00;0.00;0.62;0.00;0.00;0.62;5.47;4.37;;;17.70;24.10;;;;;;2249012;61;20384;-54
2021/12/22 04:20:28;0.00;0.00;0.62;0.00;0.00;0.62;5.77;5.20;;;17.70;24.00;;;;;;2249679;61;20436;-57
2021/12/22 04:23:14;0.00;0.00;0.62;0.00;0.00;0.62;6.57;5.57;;;17.70;24.10;;;;;;2248067;61;20431;-54
2021/12/22 04:25:59;0.00;0.00;0.62;0.00;0.00;0.62;5.73;5.10;;;17.60;24.50;;;;;;2250198;61;20443;-57
2021/12/22 04:28:44;0.00;0.00;0.62;0.00;0.00;0.62;6.40;4.70;;;17.60;24.00;;;;;;2250083;61;20392;-57
2021/12/22 04:31:29;0.00;0.00;0.62;0.00;0.00;0.62;5.27;4.77;;;17.60;24.10;;;;;;2248848;61;20360;-55
2021/12/22 04:34:14;0.00;0.00;0.62;0.00;0.00;0.62;5.40;4.40;;;17.60;24.10;;;;;;2250328;61;20411;-55
2021/12/22 04:36:59;0.00;0.00;0.62;0.00;0.00;0.62;5.67;4.77;;;17.60;24.10;;;;;;2249661;61;20706;-59
2021/12/22 04:39:43;0.00;0.00;0.62;0.00;0.00;0.62;6.50;5.27;;;17.60;24.00;;;;;;2249423;61;20397;-58
2021/12/22 04:42:29;0.00;0.00;0.62;0.00;0.00;0.62;6.13;5.50;;;17.50;23.90;;;;;;2250283;61;20388;-56
2021/12/22 04:45:14;0.00;0.00;0.62;0.00;0.00;0.62;5.67;4.30;;;17.50;23.90;;;;;;2248503;61;20400;-61
2021/12/22 04:47:59;0.00;0.00;0.62;0.00;0.00;0.62;5.83;5.23;;;17.50;23.90;;;;;;2250230;61;20388;-57
2021/12/22 04:50:45;0.00;0.00;0.62;0.00;0.00;0.62;5.73;4.47;;;17.50;23.90;;;;;;2250054;61;20441;-55
2021/12/22 04:53:37;0.00;0.00;0.62;0.00;0.00;0.62;5.20;4.30;;;17.50;24.00;;;;;;2248729;61;20440;-58
2021/12/22 04:56:21;0.00;0.00;0.62;0.00;0.00;0.62;4.63;4.13;;;17.40;23.90;;;;;;2250166;61;20432;-55
2021/12/22 04:59:06;0.00;0.00;0.62;0.00;0.00;0.62;4.90;4.00;;;17.40;23.90;;;;;;2250115;61;20428;-56
2021/12/22 05:01:51;0.00;0.00;0.62;0.00;0.00;0.62;4.63;3.80;;;17.40;24.00;;;;;;2248411;61;20364;-55
2021/12/22 05:04:36;0.00;0.00;0.62;0.00;0.00;0.62;4.70;3.90;;;17.40;24.00;;;;;;2249924;61;20590;-55
2021/12/22 05:07:22;0.00;0.00;0.62;0.00;0.00;0.62;5.10;4.60;;;17.40;24.00;;;;;;2249274;61;20608;-57
2021/12/22 05:10:08;0.00;0.00;0.62;0.00;0.00;0.62;5.30;4.70;;;17.40;24.00;;;;;;2250118;61;20360;-57
2021/12/22 05:12:54;0.00;0.00;0.62;0.00;0.00;0.62;5.27;4.77;;;17.40;24.00;;;;;;2250193;61;20369;-56
2021/12/22 05:15:39;0.00;0.00;0.62;0.00;0.00;0.62;5.63;4.10;;;17.40;24.00;;;;;;2249045;61;20420;-53
2021/12/22 05:18:36;0.00;0.00;0.62;0.00;0.00;0.62;5.63;4.37;;;17.40;24.00;;;;;;2250220;61;20420;-57
2021/12/22 05:21:22;0.00;0.00;0.62;0.00;0.00;0.62;4.50;3.80;;;17.40;24.10;;;;;;2250056;61;20395;-57
2021/12/22 05:24:08;0.00;0.00;0.62;0.00;0.00;0.62;4.47;3.77;;;17.40;24.10;;;;;;2249514;61;20361;-56
2021/12/22 05:26:53;0.00;0.00;0.62;0.00;0.00;0.62;4.50;3.80;;;17.40;24.20;;;;;;2249988;61;20748;-60
2021/12/22 05:29:38;0.00;0.00;0.62;0.00;0.00;0.62;4.50;3.70;;;17.40;24.20;;;;;;2247280;61;20433;-56
2021/12/22 05:32:28;0.00;0.00;0.62;0.00;0.00;0.62;4.63;3.97;;;17.40;24.20;;;;;;2249927;61;20388;-56
2021/12/22 05:35:13;0.00;0.00;0.62;0.00;0.00;0.62;3.67;3.13;;;17.40;24.30;;;;;;2250036;61;20348;-58
2021/12/22 05:37:57;0.00;0.00;0.62;0.00;0.00;0.62;3.43;3.13;;;17.40;24.30;;;;;;2248568;61;20344;-56
2021/12/22 05:40:43;0.00;0.00;0.62;0.00;0.00;0.62;3.73;3.33;;;17.40;24.30;;;;;;2250097;61;20357;-55
2021/12/22 05:43:28;0.00;0.00;0.62;0.00;0.00;0.62;3.47;3.10;;;17.40;24.40;;;;;;2250189;61;20713;-56
2021/12/22 05:46:13;0.00;0.00;0.62;0.00;0.00;0.62;3.70;3.20;;;17.40;24.40;;;;;;2248792;61;20654;-60
2021/12/22 05:48:57;0.00;0.00;0.62;0.00;0.00;0.62;3.37;3.03;;;17.40;24.40;;;;;;2250103;61;20357;-61
2021/12/22 05:51:42;0.00;0.00;0.62;0.00;0.00;0.62;3.07;2.67;;;17.40;24.50;;;;;;2248942;61;20368;-56
2021/12/22 05:54:27;0.00;0.00;0.62;0.00;0.00;0.62;3.23;2.93;;;17.50;24.60;;;;;;2249969;61;20729;-60
2021/12/22 05:57:13;0.00;0.00;0.62;0.00;0.00;0.62;3.07;2.77;;;17.50;24.70;;;;;;2250180;61;20607;-57
2021/12/22 05:59:58;0.00;0.00;0.62;0.00;0.00;0.62;3.63;2.70;;;17.50;24.70;;;;;;2248519;61;20481;-59
2021/12/22 06:02:42;0.00;0.00;0.62;0.00;0.00;0.62;2.80;2.20;;;17.50;24.70;;;;;;2250047;61;20364;-54
2021/12/22 06:05:27;0.00;0.00;0.62;0.00;0.00;0.62;3.30;3.00;;;17.50;24.80;;;;;;2249993;61;20470;-57
2021/12/22 06:08:12;0.00;0.00;0.62;0.00;0.00;0.62;2.97;2.23;;;17.50;24.80;;;;;;2248968;61;20565;-55
2021/12/22 06:10:56;0.00;0.00;0.62;0.00;0.00;0.62;3.10;2.43;;;17.50;24.90;;;;;;2249942;61;20360;-59
2021/12/22 06:13:42;0.00;0.00;0.62;0.00;0.00;0.62;2.40;1.87;;;17.60;24.90;;;;;;2249384;61;20427;-59
2021/12/22 06:16:29;0.00;0.00;0.62;0.00;0.00;0.62;2.63;2.33;;;17.60;25.00;;;;;;2249797;61;20389;-58
2021/12/22 06:19:15;0.00;0.00;0.62;0.00;0.00;0.62;2.80;2.33;;;17.60;24.90;;;;;;2250127;61;20572;-58
2021/12/22 06:22:00;0.00;0.00;0.62;0.00;0.00;0.62;4.57;2.67;;;17.60;24.90;;;;;;2248359;61;20355;-55
2021/12/22 06:24:46;0.00;0.00;0.62;0.00;0.00;0.62;2.43;1.90;;;17.70;25.00;;;;;;2249886;61;20404;-57
2021/12/22 06:27:31;0.00;0.00;0.62;0.00;0.00;0.62;2.67;2.00;;;17.70;25.00;;;;;;2250192;61;20373;-61
2021/12/22 06:30:20;0.00;0.00;0.62;0.00;0.00;0.62;3.33;2.37;;;17.70;25.00;;;;;;2248419;61;20392;-59
2021/12/22 06:33:04;0.00;0.00;0.62;0.00;0.00;0.62;2.83;2.10;;;17.70;25.00;;;;;;2250065;61;20724;-56
2021/12/22 06:35:49;0.00;0.00;0.62;0.00;0.00;0.62;2.40;1.93;;;17.80;25.10;;;;;;2249062;61;20372;-56
2021/12/22 06:38:35;0.00;0.00;0.62;0.00;0.00;0.62;2.70;2.50;;;17.80;25.10;;;;;;2249971;61;20408;-57
2021/12/22 06:41:19;0.00;0.00;0.62;0.00;0.00;0.62;2.80;1.97;;;17.80;25.10;;;;;;2250042;61;20625;-60
2021/12/22 06:44:05;0.00;0.00;0.62;0.00;0.00;0.62;2.20;1.97;;;17.80;25.10;;;;;;2248231;61;20361;-59
2021/12/22 06:46:52;0.00;0.00;0.62;0.00;0.00;0.62;2.67;1.87;;;17.80;25.10;;;;;;2249856;61;20439;-58
2021/12/22 06:49:37;0.00;0.00;0.62;0.00;0.00;0.62;2.47;2.27;;;17.80;25.10;;;;;;2249788;61;20466;-58
2021/12/22 06:52:21;0.00;0.00;0.62;0.00;0.00;0.62;2.13;1.70;;;17.90;25.10;;;;;;2250540;61;20364;-55
2021/12/22 06:55:07;0.00;0.00;0.62;0.00;0.00;0.62;2.10;1.87;;;17.90;25.00;;;;;;2249879;61;20369;-56
2021/12/22 06:57:52;0.00;0.00;0.62;0.00;0.00;0.62;2.43;2.13;;;17.90;25.00;;;;;;2249286;61;20740;-61
2021/12/22 07:00:36;0.00;0.00;0.62;0.00;0.00;0.62;2.97;2.10;;;17.90;25.00;;;;;;2249308;61;20361;-56
2021/12/22 07:03:22;0.00;0.00;0.62;0.00;0.00;0.62;2.20;1.97;;;17.90;25.00;;;;;;2249984;61;20400;-60
2021/12/22 07:06:07;0.00;0.00;0.62;0.00;0.00;0.62;2.23;1.93;;;17.90;24.90;;;;;;2248081;61;20416;-59
2021/12/22 07:08:51;0.00;0.00;0.62;0.00;0.00;0.62;2.57;2.20;;;17.90;24.90;;;;;;2249975;61;20412;-56
2021/12/22 07:11:38;0.00;0.00;0.62;0.00;0.00;0.62;2.07;1.70;;;18.00;25.00;;;;;;2249740;61;20360;-60
2021/12/22 07:14:22;0.00;0.00;0.62;0.00;0.00;0.62;2.80;1.90;;;18.00;24.90;;;;;;2248081;61;20568;-56
2021/12/22 07:17:09;0.00;0.00;0.62;0.00;0.00;0.62;2.10;1.60;;;18.00;25.00;;;;;;2249808;61;20381;-59
2021/12/22 07:19:55;0.00;0.00;0.62;0.00;0.00;0.62;2.30;1.43;;;18.00;24.90;;;;;;2249420;61;20364;-58
2021/12/22 07:22:41;0.00;0.00;0.62;0.00;0.00;0.62;2.47;1.97;;;18.00;24.90;;;;;;2249237;61;20376;-52
2021/12/22 07:25:26;0.00;0.00;0.62;0.00;0.00;0.62;3.07;2.20;;;18.00;24.90;;;;;;2249540;61;20439;-60
2021/12/22 07:28:11;0.00;0.00;0.62;0.00;0.00;0.62;2.00;1.50;;;18.00;24.90;;;;;;2248353;61;20461;-53
2021/12/22 07:30:55;0.00;0.00;0.62;0.00;0.00;0.62;2.77;1.80;;;18.00;24.90;;;;;;2249708;61;20395;-52
2021/12/22 07:33:43;0.00;0.00;0.62;0.00;0.00;0.62;2.87;2.00;;;18.10;24.90;;;;;;2249714;61;20365;-54
2021/12/22 07:36:29;0.00;0.00;0.62;0.00;0.00;0.62;2.50;1.93;;;18.10;24.90;;;;;;2248264;61;20700;-57
2021/12/22 07:39:13;0.00;0.00;0.62;0.00;0.00;0.62;2.00;1.60;;;18.10;24.90;;;;;;2249789;61;20720;-59
2021/12/22 07:41:58;0.00;0.00;0.62;0.00;0.00;0.62;1.87;1.50;;;18.10;24.90;;;;;;2249535;61;20365;-58
2021/12/22 07:44:42;0.00;0.00;0.62;0.00;0.00;0.62;2.43;1.60;;;18.10;24.90;;;;;;2249097;61;20378;-55
2021/12/22 07:47:27;0.00;0.00;0.62;0.00;0.00;0.62;1.90;1.50;;;18.10;24.80;;;;;;2249700;61;20392;-54
2021/12/22 07:50:12;0.00;0.00;0.62;0.00;0.00;0.62;2.57;1.80;;;18.10;24.80;;;;;;2248154;61;20361;-58
2021/12/22 07:52:57;0.00;0.00;0.62;0.00;0.00;0.62;2.03;1.50;;;18.10;24.80;;;;;;2249537;61;20559;-56
2021/12/22 07:55:42;0.00;0.00;0.62;0.00;0.00;0.62;2.70;1.97;;;18.10;24.80;;;;;;2249683;61;20381;-61
2021/12/22 07:58:27;0.00;0.00;0.62;0.00;0.00;0.62;1.70;1.50;;;18.10;24.80;;;;;;2247956;61;20635;-56
2021/12/22 08:01:12;0.00;0.00;0.62;0.00;0.00;0.62;2.80;1.93;;;18.20;24.90;;;;;;2250288;61;20400;-59
2021/12/22 08:03:56;0.00;0.00;0.62;0.00;0.00;0.62;2.00;1.30;;;18.20;24.90;;;;;;2250490;61;20744;-56
2021/12/22 08:06:41;0.00;0.00;0.62;0.00;0.00;0.62;1.77;1.30;;;18.20;24.90;;;;;;2249238;61;20392;-55
2021/12/22 08:09:27;0.00;0.00;0.62;0.00;0.00;0.62;1.70;1.20;;;18.20;24.90;;;;;;2250213;61;20401;-63
2021/12/22 08:12:11;0.00;0.00;0.62;0.00;0.00;0.62;2.10;1.50;;;18.20;24.90;;;;;;2249545;61;20441;-59
2021/12/22 08:14:56;0.00;0.00;0.62;0.00;0.00;0.62;2.03;1.63;;;18.20;24.90;;;;;;2250176;61;20408;-56
2021/12/22 08:17:40;0.00;0.00;0.62;0.00;0.00;0.62;1.90;1.30;;;18.20;24.80;;;;;;2250276;61;20679;-56
2021/12/22 08:20:26;0.00;0.00;0.62;0.00;0.00;0.62;2.03;1.43;;;18.20;24.80;;;;;;2248971;61;20369;-57
2021/12/22 08:23:11;0.00;0.00;0.62;0.00;0.00;0.62;2.90;2.30;;;18.20;24.80;;;;;;2250494;61;20408;-56
2021/12/22 08:25:57;0.00;0.00;0.62;0.00;0.00;0.62;1.90;1.33;;;18.20;24.80;;;;;;2250397;61;20787;-55
2021/12/22 08:28:41;0.00;0.00;0.62;0.00;0.00;0.62;2.10;1.50;;;18.20;24.80;;;;;;2249130;61;20440;-55
2021/12/22 08:31:26;0.00;0.00;0.62;0.00;0.00;0.62;1.67;1.33;;;18.20;24.80;;;;;;2250224;61;20368;-56
2021/12/22 08:34:13;0.00;0.00;0.62;0.00;0.00;0.62;2.50;1.43;;;18.20;24.80;;;;;;2249743;61;20709;-58
2021/12/22 08:40:01;0.00;0.00;0.62;0.00;0.00;0.62;5.80;1.83;;;18.20;24.80;;;;;;2250384;61;20399;-57
2021/12/22 08:42:48;0.00;0.00;0.62;0.00;0.00;0.62;2.13;1.30;;;18.30;24.90;;;;;;2248751;61;20357;-57
2021/12/22 08:45:32;0.00;0.00;0.62;0.00;0.00;0.62;2.17;1.60;;;18.20;24.80;;;;;;2250055;61;20393;-57
2021/12/22 08:48:17;0.00;0.00;0.62;0.00;0.00;0.62;2.00;1.30;;;18.30;24.90;;;;;;2250349;61;20423;-52
2021/12/22 08:51:02;0.00;0.00;0.62;0.00;0.00;0.62;2.07;1.50;;;18.30;24.90;;;;;;2248983;61;20633;-55
2021/12/22 08:53:47;0.00;0.00;0.62;0.00;0.00;0.62;1.90;1.33;;;18.30;24.90;;;;;;2250183;61;20400;-59
2021/12/22 08:56:34;0.00;0.00;0.62;0.00;0.00;0.62;1.90;1.50;;;18.30;24.90;;;;;;2249407;61;20752;-57
2021/12/22 08:59:20;0.00;0.00;0.62;0.00;0.00;0.62;2.27;1.40;;;18.30;24.90;;;;;;2250170;61;20423;-54
2021/12/22 09:02:05;0.00;0.00;0.62;0.00;0.00;0.62;1.60;1.17;;;18.40;25.00;;;;;;2250293;61;20363;-59
2021/12/22 09:04:50;0.00;0.00;0.62;0.00;0.00;0.62;2.10;1.50;;;18.40;25.00;;;;;;2248569;61;20361;-54
2021/12/22 09:07:35;0.00;0.00;0.62;0.00;0.00;0.62;2.37;1.50;;;18.40;25.00;;;;;;2250239;61;20424;-56
2021/12/22 09:10:19;0.00;0.00;0.62;0.00;0.00;0.62;1.90;1.10;;;18.40;25.00;;;;;;2249958;61;20404;-59
2021/12/22 09:13:04;0.00;0.00;0.62;0.00;0.00;0.62;2.20;1.40;;;18.40;25.00;;;;;;2248726;61;20401;-59
2021/12/22 09:15:50;0.00;0.00;0.62;0.00;0.00;0.62;1.80;1.17;;;18.50;25.00;;;;;;2250141;61;20383;-57
2021/12/22 09:18:36;0.00;0.00;0.62;0.00;0.00;0.62;2.03;1.33;;;18.50;25.00;;;;;;2249554;61;20365;-60
2021/12/22 09:21:21;0.00;0.00;0.62;0.00;0.00;0.62;2.00;1.23;;;18.50;25.00;;;;;;2249974;61;20437;-57
2021/12/22 09:24:07;0.00;0.00;0.62;0.00;0.00;0.62;1.60;1.30;;;18.50;25.00;;;;;;2250210;61;20436;-56
2021/12/22 09:26:52;0.00;0.00;0.62;0.00;0.00;0.62;1.73;1.33;;;18.50;25.00;;;;;;2248554;61;20440;-54
2021/12/22 09:29:37;0.00;0.00;0.62;0.00;0.00;0.62;1.97;1.40;;;18.50;25.00;;;;;;2250074;61;20392;-58
2021/12/22 09:32:23;0.00;0.00;0.62;0.00;0.00;0.62;1.77;1.37;;;18.60;25.00;;;;;;2249993;61;20360;-53
2021/12/22 09:35:08;0.00;0.00;0.62;0.00;0.00;0.62;2.20;1.10;;;18.60;25.00;;;;;;2248522;61;20477;-53
2021/12/22 09:37:53;0.00;0.00;0.62;0.00;0.00;0.62;1.70;1.10;;;18.60;25.00;;;;;;2250323;61;20396;-60
2021/12/22 09:40:38;0.00;0.00;0.62;0.00;0.00;0.62;1.80;1.07;;;18.60;25.00;;;;;;2249673;61;20388;-58
2021/12/22 09:43:23;0.00;0.00;0.62;0.00;0.00;0.62;1.77;1.30;;;18.60;25.00;;;;;;2249516;61;20360;-55
2021/12/22 09:46:11;0.00;0.00;0.62;0.00;0.00;0.62;1.90;1.30;;;18.60;25.00;;;;;;2249924;61;20464;-60
2021/12/22 09:49:18;0.00;0.00;0.62;0.00;0.00;0.62;1.60;1.20;;;18.70;25.20;;;;;;2248576;61;20364;-60
2021/12/22 09:52:21;0.00;0.00;0.62;0.00;0.00;0.62;2.43;1.37;;;18.70;25.10;;;;;;2250028;61;20356;-59
2021/12/22 09:55:08;0.00;0.00;0.62;0.00;0.00;0.62;1.70;1.20;;;18.70;25.10;;;;;;2249996;61;20384;-57
2021/12/22 09:57:54;0.00;0.00;0.62;0.00;0.00;0.62;1.57;1.13;;;18.70;25.20;;;;;;2248800;61;20359;-52
2021/12/22 10:00:40;0.00;0.00;0.62;0.00;0.00;0.62;1.70;1.27;;;18.70;25.10;;;;;;2250074;61;20372;-57
2021/12/22 10:03:25;0.00;0.00;0.62;0.00;0.00;0.62;1.50;1.17;;;18.80;25.20;;;;;;2248496;61;20448;-59
2021/12/22 10:06:11;0.00;0.00;0.62;0.00;0.00;0.62;1.77;1.20;;;18.80;25.20;;;;;;2249747;61;20469;-59
2021/12/22 10:09:00;0.00;0.00;0.62;0.00;0.00;0.62;1.47;1.10;;;18.80;25.20;;;;;;2250086;61;20373;-58
2021/12/22 10:11:45;0.00;0.00;0.62;0.00;0.00;0.62;1.70;1.10;;;18.80;25.20;;;;;;2248540;61;20420;-55
2021/12/22 10:14:30;0.00;0.00;0.62;0.00;0.00;0.62;1.70;1.13;;;18.80;25.20;;;;;;2250193;61;20360;-58
2021/12/22 10:17:31;0.00;0.00;0.62;0.00;0.00;0.62;1.73;1.10;;;18.90;25.30;;;;;;2249892;61;20759;-54
2021/12/22 10:20:20;0.00;0.00;0.62;0.00;0.00;0.62;3.00;1.10;;;18.90;25.30;;;;;;2249287;61;20359;-57
2021/12/22 10:23:23;0.00;0.00;0.62;0.00;0.00;0.62;1.50;1.10;;;18.90;25.30;;;;;;2249607;61;20373;-56
2021/12/22 10:26:09;0.00;0.00;0.62;0.00;0.00;0.62;1.70;1.27;;;18.90;25.30;;;;;;2248437;61;20396;-58
2021/12/22 10:28:57;0.00;0.00;0.62;0.00;0.00;0.62;1.43;0.93;;;18.90;25.30;;;;;;2250010;61;20396;-58
2021/12/22 10:31:45;0.00;0.00;0.62;0.00;0.00;0.62;1.70;1.00;;;19.00;25.30;;;;;;2249945;61;20393;-57
2021/12/22 10:34:30;0.00;0.00;0.62;0.00;0.00;0.62;1.47;0.97;;;19.00;25.30;;;;;;2248674;61;20400;-56
2021/12/22 10:37:30;0.00;0.00;0.62;0.00;0.00;0.62;1.60;1.20;;;19.00;25.30;;;;;;2249975;61;20661;-59
2021/12/22 10:40:28;0.00;0.00;0.62;0.00;0.00;0.62;1.80;1.17;;;19.00;25.30;;;;;;2248971;61;20821;-59
2021/12/22 10:43:20;0.00;0.00;0.62;0.00;0.00;0.62;1.70;1.10;;;19.10;25.40;;;;;;2250048;61;20381;-55
2021/12/22 10:46:05;0.00;0.00;0.62;0.00;0.00;0.62;1.73;1.00;;;19.10;25.40;;;;;;2249773;61;20437;-62
2021/12/22 10:49:20;0.00;0.00;0.62;0.00;0.00;0.62;1.77;1.17;;;19.10;25.40;;;;;;2248516;61;20360;-57
2021/12/22 10:52:05;0.00;0.00;0.62;0.00;0.00;0.62;1.50;0.97;;;19.10;25.40;;;;;;2249798;61;20372;-55
2021/12/22 10:54:51;0.00;0.00;0.62;0.00;0.00;0.62;1.50;1.00;;;19.20;25.40;;;;;;2249094;61;20364;-59
2021/12/22 10:57:40;0.00;0.00;0.62;0.00;0.00;0.62;2.33;1.37;;;19.20;25.40;;;;;;2249834;61;20360;-55
2021/12/22 11:00:25;0.00;0.00;0.62;0.00;0.00;0.62;1.60;1.10;;;19.20;25.40;;;;;;2249875;61;20733;-59
2021/12/22 11:03:16;0.00;0.00;0.62;0.00;0.00;0.62;1.87;1.30;;;19.30;25.40;;;;;;2248468;61;20403;-59
2021/12/22 11:06:02;0.00;0.00;0.62;0.00;0.00;0.62;2.50;1.20;;;19.30;25.30;;;;;;2249641;61;20385;-58
2021/12/22 11:09:00;0.00;0.00;0.62;0.00;0.00;0.62;1.60;1.07;;;19.30;25.30;;;;;;2249839;61;20368;-57
2021/12/22 11:11:49;0.00;0.00;0.62;0.00;0.00;0.62;1.50;1.13;;;19.30;25.20;;;;;;2248769;61;20372;-60
2021/12/22 11:14:39;0.00;0.00;0.62;0.00;0.00;0.62;1.70;0.97;;;19.30;25.20;;;;;;2249974;61;20594;-58
2021/12/22 11:17:25;0.00;0.00;0.62;0.00;0.00;0.62;1.67;0.93;;;19.40;25.20;;;;;;2248414;61;20420;-60